BAW711 LFRB-EGNM
Flight info
| Callsign | BAW711 |
|---|---|
| Flight time | 1h 1m |
| Altitude | 39000 |
| Route | NORBU DCT SALCO DCT MONTY DCT BARTN DCT GAM31 DCT RIMTO DCT LBA |
| Aircraft | L101/H-SDFGHIRWXY/S |
Departure
| Time | 2026-05-05 19:48 |
|---|---|
| Airport | Brest Bretagne airport (LFRB) |
Arrival
| Time | 2026-05-05 20:49 |
|---|---|
| Airport | Leeds Bradford Airport (EGNM) |
| Time | Latitude | Longitude | Altitude | Speed | Heading |
|---|---|---|---|---|---|
| 2026-05-05 19:28 | 48.44450 | -4.42013 | 333 ft | 0 kts | 191° |
| 2026-05-05 19:40 | 48.44453 | -4.42012 | 337 ft | 3 kts | 191° |
| 2026-05-05 19:40 | 48.44471 | -4.42007 | 332 ft | 2 kts | 192° |
| 2026-05-05 19:40 | 48.44488 | -4.41998 | 332 ft | 3 kts | 174° |
| 2026-05-05 19:41 | 48.44505 | -4.42008 | 332 ft | 3 kts | 144° |
| 2026-05-05 19:41 | 48.44518 | -4.42026 | 333 ft | 2 kts | 115° |
| 2026-05-05 19:41 | 48.44525 | -4.42048 | 332 ft | 1 kts | 100° |
| 2026-05-05 19:43 | 48.44525 | -4.42041 | 332 ft | 2 kts | 96° |
| 2026-05-05 19:44 | 48.44533 | -4.42006 | 333 ft | 5 kts | 55° |
| 2026-05-05 19:44 | 48.44568 | -4.41971 | 333 ft | 7 kts | 41° |
| 2026-05-05 19:44 | 48.44605 | -4.41899 | 335 ft | 10 kts | 73° |
| 2026-05-05 19:44 | 48.44628 | -4.41782 | 333 ft | 13 kts | 73° |
| 2026-05-05 19:45 | 48.44668 | -4.41652 | 332 ft | 13 kts | 45° |
| 2026-05-05 19:45 | 48.44758 | -4.41642 | 335 ft | 14 kts | 349° |
| 2026-05-05 19:45 | 48.44843 | -4.41588 | 334 ft | 16 kts | 57° |
| 2026-05-05 19:45 | 48.44885 | -4.41417 | 335 ft | 20 kts | 76° |
| 2026-05-05 19:46 | 48.44937 | -4.41182 | 326 ft | 26 kts | 71° |
| 2026-05-05 19:46 | 48.44998 | -4.40913 | 325 ft | 29 kts | 71° |
| 2026-05-05 19:46 | 48.45057 | -4.40650 | 328 ft | 26 kts | 71° |
| 2026-05-05 19:46 | 48.45120 | -4.40371 | 321 ft | 29 kts | 72° |
| 2026-05-05 19:47 | 48.45180 | -4.40104 | 317 ft | 27 kts | 79° |
| 2026-05-05 19:47 | 48.45202 | -4.39894 | 320 ft | 11 kts | 32° |
| 2026-05-05 19:47 | 48.45230 | -4.39890 | 319 ft | 1 kts | 343° |
| 2026-05-05 19:47 | 48.45251 | -4.39927 | 319 ft | 8 kts | 288° |
| 2026-05-05 19:48 | 48.45196 | -4.40107 | 316 ft | 55 kts | 247° |
| 2026-05-05 19:48 | 48.44955 | -4.41104 | 327 ft | 145 kts | 252° |
| 2026-05-05 19:48 | 48.44581 | -4.42727 | 996 ft | 176 kts | 253° |
| 2026-05-05 19:48 | 48.44141 | -4.44560 | 1932 ft | 194 kts | 253° |
| 2026-05-05 19:49 | 48.43781 | -4.46540 | 2670 ft | 201 kts | 268° |
| 2026-05-05 19:49 | 48.43794 | -4.47935 | 3141 ft | 205 kts | 273° |
| 2026-05-05 19:49 | 48.43095 | -4.50807 | 3903 ft | 240 kts | 239° |
| 2026-05-05 19:49 | 48.42184 | -4.53025 | 4464 ft | 256 kts | 251° |
| 2026-05-05 19:50 | 48.41880 | -4.55557 | 5066 ft | 247 kts | 277° |
| 2026-05-05 19:50 | 48.42333 | -4.58028 | 5723 ft | 247 kts | 302° |
| 2026-05-05 19:50 | 48.43440 | -4.59980 | 6290 ft | 246 kts | 326° |
| 2026-05-05 19:50 | 48.45053 | -4.61070 | 6788 ft | 272 kts | 349° |
| 2026-05-05 19:51 | 48.46981 | -4.61080 | 7606 ft | 290 kts | 11° |
| 2026-05-05 19:51 | 48.48849 | -4.59964 | 8988 ft | 288 kts | 28° |
| 2026-05-05 19:51 | 48.50485 | -4.58371 | 10726 ft | 271 kts | 32° |
| 2026-05-05 19:51 | 48.52060 | -4.56833 | 11981 ft | 273 kts | 30° |
| 2026-05-05 19:52 | 48.53779 | -4.55408 | 12614 ft | 295 kts | 25° |
| 2026-05-05 19:52 | 48.55727 | -4.54079 | 13140 ft | 317 kts | 22° |
| 2026-05-05 19:52 | 48.57812 | -4.52853 | 14109 ft | 321 kts | 20° |
| 2026-05-05 19:52 | 48.59873 | -4.51717 | 15625 ft | 306 kts | 20° |
| 2026-05-05 19:53 | 48.61798 | -4.50608 | 17391 ft | 288 kts | 22° |
| 2026-05-05 19:53 | 48.63646 | -4.49436 | 18560 ft | 291 kts | 24° |
| 2026-05-05 19:53 | 48.65565 | -4.48144 | 18958 ft | 316 kts | 24° |
| 2026-05-05 19:53 | 48.67683 | -4.46685 | 18976 ft | 351 kts | 25° |
| 2026-05-05 19:54 | 48.69961 | -4.45116 | 19450 ft | 366 kts | 24° |
| 2026-05-05 19:54 | 48.72278 | -4.43543 | 20668 ft | 357 kts | 24° |
| 2026-05-05 19:54 | 48.74440 | -4.42095 | 22539 ft | 329 kts | 24° |
| 2026-05-05 19:54 | 48.76424 | -4.40619 | 24262 ft | 310 kts | 27° |
| 2026-05-05 19:55 | 48.78313 | -4.39036 | 25140 ft | 314 kts | 30° |
| 2026-05-05 19:55 | 48.80278 | -4.37283 | 25269 ft | 347 kts | 31° |
| 2026-05-05 19:55 | 48.82491 | -4.35252 | 24769 ft | 396 kts | 32° |
| 2026-05-05 19:55 | 48.84981 | -4.32944 | 24659 ft | 428 kts | 31° |
| 2026-05-05 19:56 | 48.87530 | -4.30599 | 25265 ft | 436 kts | 31° |
| 2026-05-05 19:56 | 48.90098 | -4.28269 | 26708 ft | 420 kts | 31° |
| 2026-05-05 19:56 | 48.92518 | -4.26108 | 28936 ft | 388 kts | 32° |
| 2026-05-05 19:56 | 48.94771 | -4.24120 | 30940 ft | 363 kts | 31° |
| 2026-05-05 19:57 | 48.96936 | -4.22219 | 32134 ft | 358 kts | 31° |
| 2026-05-05 19:57 | 48.98378 | -4.20948 | 32467 ft | 367 kts | 31° |
| 2026-05-05 19:57 | 49.01474 | -4.18211 | 32084 ft | 409 kts | 30° |
| 2026-05-05 19:57 | 49.04072 | -4.15905 | 31218 ft | 454 kts | 31° |
| 2026-05-05 19:58 | 49.06928 | -4.13363 | 30807 ft | 491 kts | 31° |
| 2026-05-05 19:58 | 49.09904 | -4.10709 | 31174 ft | 495 kts | 31° |
| 2026-05-05 19:58 | 49.12858 | -4.08073 | 31700 ft | 488 kts | 31° |
| 2026-05-05 19:58 | 49.15791 | -4.05452 | 32344 ft | 488 kts | 31° |
| 2026-05-05 19:59 | 49.18708 | -4.02844 | 33166 ft | 483 kts | 30° |
| 2026-05-05 19:59 | 49.21599 | -4.00257 | 33988 ft | 479 kts | 30° |
| 2026-05-05 19:59 | 49.24477 | -3.97677 | 34710 ft | 480 kts | 30° |
| 2026-05-05 19:59 | 49.27374 | -3.95077 | 35432 ft | 485 kts | 30° |
| 2026-05-05 20:00 | 49.30282 | -3.92463 | 36043 ft | 486 kts | 30° |
| 2026-05-05 20:00 | 49.33220 | -3.89817 | 36706 ft | 487 kts | 30° |
| 2026-05-05 20:00 | 49.36104 | -3.87216 | 37335 ft | 489 kts | 30° |
| 2026-05-05 20:00 | 49.39045 | -3.84561 | 37860 ft | 492 kts | 30° |
| 2026-05-05 20:01 | 49.42002 | -3.81888 | 38141 ft | 494 kts | 30° |
| 2026-05-05 20:01 | 49.44957 | -3.79210 | 38395 ft | 493 kts | 30° |
| 2026-05-05 20:01 | 49.47915 | -3.76528 | 38667 ft | 494 kts | 30° |
| 2026-05-05 20:01 | 49.50847 | -3.73864 | 38828 ft | 484 kts | 30° |
| 2026-05-05 20:02 | 49.53709 | -3.71259 | 38915 ft | 473 kts | 30° |
| 2026-05-05 20:02 | 49.59286 | -3.66175 | 38965 ft | 456 kts | 30° |
| 2026-05-05 20:03 | 49.64717 | -3.61213 | 38976 ft | 452 kts | 30° |
| 2026-05-05 20:03 | 49.70126 | -3.56257 | 38973 ft | 453 kts | 30° |
| 2026-05-05 20:04 | 49.75807 | -3.52146 | 38971 ft | 449 kts | 14° |
| 2026-05-05 20:04 | 49.81971 | -3.50721 | 38972 ft | 449 kts | 1° |
| 2026-05-05 20:05 | 49.88179 | -3.50679 | 38969 ft | 449 kts | 358° |
| 2026-05-05 20:05 | 49.94425 | -3.50694 | 38973 ft | 449 kts | 0° |
| 2026-05-05 20:06 | 50.00674 | -3.50293 | 38970 ft | 449 kts | 2° |
| 2026-05-05 20:06 | 50.06916 | -3.49586 | 38971 ft | 450 kts | 4° |
| 2026-05-05 20:07 | 50.13156 | -3.48804 | 38973 ft | 450 kts | 3° |
| 2026-05-05 20:07 | 50.19441 | -3.48069 | 38980 ft | 461 kts | 3° |
| 2026-05-05 20:08 | 50.25883 | -3.47374 | 38970 ft | 467 kts | 3° |
| 2026-05-05 20:08 | 50.32376 | -3.46695 | 38982 ft | 468 kts | 2° |
| 2026-05-05 20:09 | 50.38874 | -3.46000 | 38984 ft | 468 kts | 2° |
| 2026-05-05 20:09 | 50.43967 | -3.45450 | 38980 ft | 468 kts | 3° |
| 2026-05-05 20:10 | 50.51444 | -3.44633 | 38977 ft | 468 kts | 3° |
| 2026-05-05 20:10 | 50.57953 | -3.43928 | 38986 ft | 468 kts | 2° |
| 2026-05-05 20:11 | 50.63365 | -3.43338 | 38999 ft | 468 kts | 3° |
| 2026-05-05 20:11 | 50.69862 | -3.42628 | 38999 ft | 468 kts | 3° |
| 2026-05-05 20:12 | 50.76347 | -3.41917 | 38998 ft | 468 kts | 3° |
| 2026-05-05 20:12 | 50.82845 | -3.41202 | 39002 ft | 468 kts | 3° |
| 2026-05-05 20:13 | 50.89331 | -3.40486 | 38997 ft | 467 kts | 2° |
| 2026-05-05 20:13 | 50.95817 | -3.39769 | 39000 ft | 467 kts | 2° |
| 2026-05-05 20:14 | 51.02320 | -3.39048 | 38997 ft | 467 kts | 3° |
| 2026-05-05 20:14 | 51.08814 | -3.38325 | 38993 ft | 467 kts | 2° |
| 2026-05-05 20:15 | 51.15258 | -3.37607 | 38996 ft | 467 kts | 3° |
| 2026-05-05 20:15 | 51.21740 | -3.36882 | 38973 ft | 468 kts | 3° |
| 2026-05-05 20:15 | 51.25005 | -3.36516 | 38535 ft | 470 kts | 2° |
| 2026-05-05 20:16 | 51.28257 | -3.36150 | 37935 ft | 465 kts | 3° |
| 2026-05-05 20:16 | 51.31449 | -3.35789 | 37415 ft | 458 kts | 2° |
| 2026-05-05 20:16 | 51.34604 | -3.35433 | 36868 ft | 451 kts | 2° |
| 2026-05-05 20:16 | 51.37707 | -3.35083 | 36346 ft | 444 kts | 2° |
| 2026-05-05 20:17 | 51.40773 | -3.34738 | 35839 ft | 438 kts | 3° |
| 2026-05-05 20:17 | 51.43801 | -3.34396 | 35346 ft | 436 kts | 3° |
| 2026-05-05 20:17 | 51.46809 | -3.34055 | 34858 ft | 432 kts | 3° |
| 2026-05-05 20:17 | 51.49789 | -3.33718 | 34312 ft | 428 kts | 3° |
| 2026-05-05 20:18 | 51.52741 | -3.33383 | 33653 ft | 422 kts | 2° |
| 2026-05-05 20:18 | 51.55658 | -3.33051 | 32971 ft | 415 kts | 2° |
| 2026-05-05 20:18 | 51.58516 | -3.32726 | 32311 ft | 408 kts | 2° |
| 2026-05-05 20:18 | 51.61327 | -3.32406 | 31649 ft | 403 kts | 2° |
| 2026-05-05 20:19 | 51.64119 | -3.32089 | 31014 ft | 399 kts | 3° |
| 2026-05-05 20:19 | 51.66918 | -3.31769 | 30419 ft | 411 kts | 2° |
| 2026-05-05 20:19 | 51.69800 | -3.31441 | 29743 ft | 417 kts | 2° |
| 2026-05-05 20:19 | 51.72692 | -3.31109 | 29035 ft | 416 kts | 2° |
| 2026-05-05 20:20 | 51.75554 | -3.30778 | 28488 ft | 421 kts | 2° |
| 2026-05-05 20:20 | 51.78478 | -3.30443 | 28262 ft | 419 kts | 3° |
| 2026-05-05 20:20 | 51.81377 | -3.30109 | 28101 ft | 417 kts | 3° |
| 2026-05-05 20:21 | 51.87140 | -3.29445 | 28042 ft | 415 kts | 2° |
| 2026-05-05 20:21 | 51.92697 | -3.28802 | 28030 ft | 415 kts | 3° |
| 2026-05-05 20:22 | 51.98308 | -3.28153 | 28025 ft | 414 kts | 2° |
| 2026-05-05 20:22 | 52.04063 | -3.27489 | 28019 ft | 415 kts | 3° |
| 2026-05-05 20:23 | 52.09790 | -3.26822 | 28029 ft | 415 kts | 3° |
| 2026-05-05 20:23 | 52.15593 | -3.26143 | 28032 ft | 415 kts | 3° |
| 2026-05-05 20:24 | 52.21325 | -3.25472 | 28026 ft | 415 kts | 3° |
| 2026-05-05 20:24 | 52.27095 | -3.24796 | 28038 ft | 417 kts | 2° |
| 2026-05-05 20:25 | 52.32896 | -3.24115 | 28035 ft | 418 kts | 2° |
| 2026-05-05 20:25 | 52.38702 | -3.23432 | 28031 ft | 418 kts | 2° |
| 2026-05-05 20:26 | 52.44511 | -3.22745 | 28033 ft | 418 kts | 2° |
| 2026-05-05 20:26 | 52.50316 | -3.22055 | 28040 ft | 419 kts | 2° |
| 2026-05-05 20:26 | 52.53243 | -3.21707 | 27842 ft | 423 kts | 2° |
| 2026-05-05 20:27 | 52.56168 | -3.21358 | 27265 ft | 420 kts | 2° |
| 2026-05-05 20:27 | 52.59012 | -3.21016 | 26587 ft | 410 kts | 2° |
| 2026-05-05 20:27 | 52.61853 | -3.20674 | 25921 ft | 399 kts | 2° |
| 2026-05-05 20:27 | 52.64596 | -3.20344 | 25310 ft | 393 kts | 2° |
| 2026-05-05 20:28 | 52.67281 | -3.20023 | 24705 ft | 390 kts | 2° |
| 2026-05-05 20:28 | 52.69969 | -3.19704 | 24103 ft | 387 kts | 2° |
| 2026-05-05 20:28 | 52.72688 | -3.19382 | 23523 ft | 399 kts | 1° |
| 2026-05-05 20:28 | 52.75475 | -3.19054 | 22789 ft | 402 kts | 1° |
| 2026-05-05 20:29 | 52.78266 | -3.18722 | 22143 ft | 401 kts | 2° |
| 2026-05-05 20:29 | 52.81038 | -3.18389 | 21470 ft | 398 kts | 2° |
| 2026-05-05 20:29 | 52.83785 | -3.18056 | 20819 ft | 394 kts | 2° |
| 2026-05-05 20:29 | 52.86513 | -3.17725 | 20186 ft | 390 kts | 2° |
| 2026-05-05 20:30 | 52.89176 | -3.17022 | 19519 ft | 389 kts | 14° |
| 2026-05-05 20:30 | 52.91673 | -3.15335 | 18920 ft | 387 kts | 26° |
| 2026-05-05 20:30 | 52.93944 | -3.12961 | 18385 ft | 384 kts | 34° |
| 2026-05-05 20:30 | 52.96025 | -3.10210 | 18177 ft | 383 kts | 39° |
| 2026-05-05 20:31 | 52.98026 | -3.07295 | 18108 ft | 383 kts | 40° |
| 2026-05-05 20:31 | 53.00011 | -3.04346 | 18072 ft | 383 kts | 40° |
| 2026-05-05 20:31 | 53.02018 | -3.01437 | 18059 ft | 383 kts | 38° |
| 2026-05-05 20:31 | 53.04031 | -2.98636 | 18055 ft | 382 kts | 37° |
| 2026-05-05 20:32 | 53.06106 | -2.95857 | 18050 ft | 382 kts | 36° |
| 2026-05-05 20:32 | 53.08198 | -2.93136 | 18052 ft | 382 kts | 36° |
| 2026-05-05 20:32 | 53.10305 | -2.90442 | 18055 ft | 382 kts | 35° |
| 2026-05-05 20:32 | 53.12424 | -2.87753 | 18054 ft | 382 kts | 35° |
| 2026-05-05 20:33 | 53.14536 | -2.85074 | 18056 ft | 382 kts | 35° |
| 2026-05-05 20:33 | 53.16648 | -2.82383 | 18055 ft | 382 kts | 35° |
| 2026-05-05 20:33 | 53.18755 | -2.79685 | 18048 ft | 382 kts | 36° |
| 2026-05-05 20:33 | 53.20862 | -2.76974 | 18048 ft | 382 kts | 36° |
| 2026-05-05 20:34 | 53.22964 | -2.74258 | 18051 ft | 382 kts | 36° |
| 2026-05-05 20:34 | 53.24919 | -2.71724 | 18049 ft | 383 kts | 36° |
| 2026-05-05 20:34 | 53.26957 | -2.69078 | 18050 ft | 383 kts | 36° |
| 2026-05-05 20:34 | 53.29061 | -2.66342 | 18051 ft | 383 kts | 36° |
| 2026-05-05 20:35 | 53.31159 | -2.63611 | 18055 ft | 383 kts | 36° |
| 2026-05-05 20:35 | 53.33260 | -2.60873 | 18055 ft | 383 kts | 36° |
| 2026-05-05 20:35 | 53.35368 | -2.58124 | 18053 ft | 383 kts | 36° |
| 2026-05-05 20:35 | 53.37466 | -2.55386 | 17992 ft | 385 kts | 36° |
| 2026-05-05 20:36 | 53.39574 | -2.52630 | 17497 ft | 379 kts | 36° |
| 2026-05-05 20:36 | 53.41630 | -2.49935 | 16942 ft | 370 kts | 36° |
| 2026-05-05 20:36 | 53.43643 | -2.47292 | 16425 ft | 365 kts | 36° |
| 2026-05-05 20:36 | 53.45635 | -2.44676 | 15915 ft | 361 kts | 36° |
| 2026-05-05 20:37 | 53.47433 | -2.41741 | 15375 ft | 361 kts | 50° |
| 2026-05-05 20:37 | 53.48782 | -2.38273 | 14884 ft | 359 kts | 60° |
| 2026-05-05 20:37 | 53.49835 | -2.34483 | 14396 ft | 358 kts | 66° |
| 2026-05-05 20:37 | 53.50715 | -2.30585 | 13918 ft | 355 kts | 69° |
| 2026-05-05 20:38 | 53.51520 | -2.26695 | 13389 ft | 352 kts | 69° |
| 2026-05-05 20:38 | 53.52281 | -2.22848 | 12859 ft | 340 kts | 70° |
| 2026-05-05 20:38 | 53.53035 | -2.19152 | 12326 ft | 328 kts | 68° |
| 2026-05-05 20:38 | 53.53835 | -2.15631 | 11835 ft | 318 kts | 65° |
| 2026-05-05 20:39 | 53.54679 | -2.12245 | 11314 ft | 309 kts | 64° |
| 2026-05-05 20:39 | 53.55528 | -2.08973 | 10808 ft | 302 kts | 63° |
| 2026-05-05 20:39 | 53.56371 | -2.05736 | 10216 ft | 300 kts | 63° |
| 2026-05-05 20:39 | 53.57193 | -2.02528 | 9573 ft | 298 kts | 63° |
| 2026-05-05 20:40 | 53.57996 | -1.99329 | 8927 ft | 295 kts | 64° |
| 2026-05-05 20:40 | 53.58779 | -1.96168 | 8392 ft | 289 kts | 64° |
| 2026-05-05 20:40 | 53.59542 | -1.93075 | 7881 ft | 283 kts | 64° |
| 2026-05-05 20:40 | 53.60293 | -1.90038 | 7451 ft | 277 kts | 64° |
| 2026-05-05 20:41 | 53.61021 | -1.87091 | 7249 ft | 269 kts | 64° |
| 2026-05-05 20:41 | 53.61742 | -1.84186 | 7147 ft | 269 kts | 65° |
| 2026-05-05 20:41 | 53.62461 | -1.81275 | 7093 ft | 269 kts | 64° |
| 2026-05-05 20:41 | 53.63183 | -1.78359 | 7075 ft | 269 kts | 65° |
| 2026-05-05 20:42 | 53.63891 | -1.75488 | 7067 ft | 268 kts | 64° |
| 2026-05-05 20:42 | 53.64605 | -1.72577 | 7016 ft | 270 kts | 64° |
| 2026-05-05 20:42 | 53.65314 | -1.69692 | 6706 ft | 261 kts | 66° |
| 2026-05-05 20:42 | 53.65998 | -1.66903 | 6403 ft | 254 kts | 65° |
| 2026-05-05 20:43 | 53.66662 | -1.64191 | 6078 ft | 248 kts | 65° |
| 2026-05-05 20:43 | 53.67311 | -1.61546 | 5671 ft | 239 kts | 66° |
| 2026-05-05 20:43 | 53.67932 | -1.59006 | 5285 ft | 230 kts | 65° |
| 2026-05-05 20:43 | 53.68536 | -1.56538 | 4991 ft | 224 kts | 65° |
| 2026-05-05 20:44 | 53.69122 | -1.54143 | 4732 ft | 218 kts | 65° |
| 2026-05-05 20:44 | 53.69696 | -1.51790 | 4475 ft | 216 kts | 65° |
| 2026-05-05 20:44 | 53.70257 | -1.49489 | 4274 ft | 214 kts | 65° |
| 2026-05-05 20:44 | 53.70844 | -1.47168 | 4078 ft | 211 kts | 57° |
| 2026-05-05 20:45 | 53.73171 | -1.45354 | 3738 ft | 178 kts | 355° |
| 2026-05-05 20:45 | 53.74369 | -1.45162 | 3885 ft | 169 kts | 13° |
| 2026-05-05 20:45 | 53.75537 | -1.45739 | 3758 ft | 187 kts | 324° |
| 2026-05-05 20:46 | 53.76236 | -1.47609 | 3414 ft | 193 kts | 300° |
| 2026-05-05 20:46 | 53.76770 | -1.49669 | 3133 ft | 185 kts | 299° |
| 2026-05-05 20:46 | 53.77344 | -1.51609 | 2666 ft | 184 kts | 307° |
| 2026-05-05 20:46 | 53.78101 | -1.53253 | 2318 ft | 168 kts | 320° |
| 2026-05-05 20:47 | 53.78931 | -1.54488 | 2195 ft | 155 kts | 330° |
| 2026-05-05 20:47 | 53.79756 | -1.55527 | 1967 ft | 147 kts | 328° |
| 2026-05-05 20:47 | 53.80527 | -1.56708 | 1750 ft | 154 kts | 323° |
| 2026-05-05 20:47 | 53.81320 | -1.57975 | 1538 ft | 157 kts | 324° |
| 2026-05-05 20:48 | 53.82134 | -1.59214 | 1363 ft | 159 kts | 323° |
| 2026-05-05 20:48 | 53.82953 | -1.60465 | 1219 ft | 157 kts | 323° |
| 2026-05-05 20:48 | 53.83756 | -1.61687 | 1158 ft | 152 kts | 323° |
| 2026-05-05 20:48 | 53.84537 | -1.62889 | 1024 ft | 148 kts | 323° |
| 2026-05-05 20:49 | 53.85246 | -1.64006 | 813 ft | 140 kts | 322° |
| 2026-05-05 20:49 | 53.85945 | -1.65084 | 722 ft | 134 kts | 323° |
| 2026-05-05 20:49 | 53.86588 | -1.66015 | 672 ft | 96 kts | 308° |
| 2026-05-05 20:49 | 53.86959 | -1.66403 | 674 ft | 19 kts | 37° |
| 2026-05-05 20:50 | 53.86962 | -1.66314 | 672 ft | 9 kts | 130° |
| 2026-05-05 20:50 | 53.86918 | -1.66264 | 672 ft | 12 kts | 145° |
| 2026-05-05 20:50 | 53.86901 | -1.66239 | 671 ft | 2 kts | 137° |
| 2026-05-05 20:50 | 53.86888 | -1.66213 | 672 ft | 5 kts | 129° |
| 2026-05-05 20:51 | 53.86870 | -1.66183 | 672 ft | 7 kts | 135° |